createdAt,value
2023-01-25T00:00:17.358Z,97015.00
2023-01-25T00:05:45.649Z,97011.00
2023-01-25T00:11:13.820Z,97015.00
2023-01-25T00:16:42.699Z,97011.00
2023-01-25T00:22:10.839Z,97013.00
2023-01-25T00:27:38.667Z,97017.00
2023-01-25T00:33:18.800Z,97008.00
2023-01-25T00:38:48.310Z,96998.00
2023-01-25T00:44:18.661Z,96998.00
2023-01-25T00:49:52.883Z,97007.00
2023-01-25T00:55:20.762Z,97007.00
2023-01-25T01:00:50.361Z,97007.00
2023-01-25T01:06:19.423Z,97004.00
2023-01-25T01:11:47.782Z,97003.00
2023-01-25T01:17:15.717Z,97008.00
2023-01-25T01:22:44.155Z,97006.00
2023-01-25T01:28:13.165Z,96999.00
2023-01-25T01:33:41.374Z,96987.00
2023-01-25T01:39:11.045Z,96989.00
2023-01-25T01:44:50.985Z,96988.00
2023-01-25T01:50:24.775Z,96985.00
2023-01-25T01:56:01.585Z,96992.00
2023-01-25T02:01:35.105Z,96984.00
2023-01-25T02:07:22.029Z,96991.00
2023-01-25T02:12:58.690Z,96998.00
2023-01-25T02:18:27.004Z,96987.00
2023-01-25T02:24:05.265Z,96982.00
2023-01-25T02:29:33.660Z,96976.00
2023-01-25T02:35:02.235Z,96978.00
2023-01-25T02:40:43.432Z,96977.00
2023-01-25T02:46:28.562Z,96972.00
2023-01-25T02:51:57.568Z,96958.00
2023-01-25T02:57:25.803Z,96964.00
2023-01-25T03:02:53.771Z,96968.00
2023-01-25T03:08:21.808Z,96952.00
2023-01-25T03:13:53.814Z,96952.00
2023-01-25T03:19:23.149Z,96955.00
2023-01-25T03:24:51.399Z,96943.00
2023-01-25T03:30:21.419Z,96940.00
2023-01-25T03:35:54.131Z,96943.00
2023-01-25T03:41:22.084Z,96943.00
2023-01-25T03:46:52.512Z,96936.00
2023-01-25T03:52:20.994Z,96935.00
2023-01-25T03:57:50.005Z,96943.00
2023-01-25T04:03:19.749Z,96931.00
2023-01-25T04:08:53.295Z,96941.00
2023-01-25T04:14:42.503Z,96938.00
2023-01-25T04:20:12.672Z,96927.00
2023-01-25T04:25:42.674Z,96923.00
2023-01-25T04:31:15.022Z,96920.00
2023-01-25T04:36:43.030Z,96920.00
2023-01-25T04:42:11.369Z,96915.00
2023-01-25T04:48:01.869Z,96910.00
2023-01-25T04:53:36.179Z,96907.00
2023-01-25T04:59:06.742Z,96894.00
2023-01-25T05:04:34.609Z,96885.00
2023-01-25T05:10:03.513Z,96893.00
2023-01-25T05:15:34.313Z,96892.00
2023-01-25T05:21:03.126Z,96894.00
2023-01-25T05:26:50.877Z,96889.00
2023-01-25T05:32:21.738Z,96884.00
2023-01-25T05:37:50.399Z,96886.00
2023-01-25T05:43:24.469Z,96876.00
2023-01-25T05:48:52.848Z,96880.00
2023-01-25T05:54:22.208Z,96873.00
2023-01-25T05:59:59.044Z,96866.00
2023-01-25T06:05:26.923Z,96874.00
2023-01-25T06:10:56.155Z,96876.00
2023-01-25T06:16:25.269Z,96870.00
2023-01-25T06:22:22.074Z,96869.00
2023-01-25T06:27:49.970Z,96863.00
2023-01-25T06:33:18.908Z,96869.00
2023-01-25T06:38:52.781Z,96861.00
2023-01-25T06:44:22.864Z,96863.00
2023-01-25T06:49:56.708Z,96861.00
2023-01-25T06:55:24.485Z,96855.00
2023-01-25T07:00:52.689Z,96835.00
2023-01-25T07:06:21.415Z,96836.00
2023-01-25T07:11:54.560Z,96835.00
2023-01-25T07:17:22.907Z,96830.00
2023-01-25T07:22:50.764Z,96828.00
2023-01-25T07:28:18.567Z,96826.00
2023-01-25T07:33:55.954Z,96832.00
2023-01-25T07:39:23.835Z,96825.00
2023-01-25T07:44:52.605Z,96827.00
2023-01-25T07:50:21.386Z,96833.00
2023-01-25T07:55:49.345Z,96839.00
2023-01-25T08:01:20.648Z,96841.00
2023-01-25T08:06:49.566Z,96838.00
2023-01-25T08:12:18.590Z,96831.00
2023-01-25T08:17:48.444Z,96831.00
2023-01-25T08:23:16.309Z,96828.00
2023-01-25T08:28:45.154Z,96822.00
2023-01-25T08:34:13.204Z,96823.00
2023-01-25T08:39:42.283Z,96817.00
2023-01-25T08:45:11.225Z,96815.00
2023-01-25T08:50:39.294Z,96815.00
2023-01-25T08:56:11.728Z,96817.00
2023-01-25T09:01:46.055Z,96808.00
2023-01-25T09:07:22.189Z,96799.00
2023-01-25T09:12:50.915Z,96797.00
2023-01-25T09:18:18.711Z,96797.00
2023-01-25T09:23:57.672Z,96799.00
2023-01-25T09:29:33.096Z,96792.00
2023-01-25T09:35:01.269Z,96792.00
2023-01-25T09:40:38.373Z,96789.00
2023-01-25T09:46:49.071Z,96797.00
2023-01-25T09:52:54.855Z,96783.00
2023-01-25T09:58:35.333Z,96786.00
2023-01-25T10:04:37.324Z,96782.00
2023-01-25T10:10:31.181Z,96768.00
2023-01-25T10:16:24.603Z,96767.00
2023-01-25T10:22:06.158Z,96747.00
2023-01-25T10:27:39.884Z,96749.00
2023-01-25T10:33:15.524Z,96745.00
2023-01-25T10:39:12.101Z,96728.00
2023-01-25T10:44:39.992Z,96743.00
2023-01-25T10:50:09.331Z,96719.00
2023-01-25T10:55:37.402Z,96721.00
2023-01-25T11:01:09.563Z,96724.00
2023-01-25T11:06:50.382Z,96700.00
2023-01-25T11:12:21.037Z,96690.00
2023-01-25T11:18:07.172Z,96683.00
2023-01-25T11:23:38.662Z,96671.00
2023-01-25T11:29:16.005Z,96669.00
2023-01-25T11:34:44.984Z,96658.00
2023-01-25T11:40:41.512Z,96649.00
2023-01-25T11:46:28.237Z,96640.00
2023-01-25T11:52:06.709Z,96628.00
2023-01-25T11:57:56.432Z,96619.00
2023-01-25T12:04:05.619Z,96600.00
2023-01-25T12:10:15.638Z,96591.00
2023-01-25T12:16:06.369Z,96583.00
2023-01-25T12:22:11.268Z,96568.00
2023-01-25T12:27:48.158Z,96565.00
2023-01-25T12:33:54.185Z,96554.00
2023-01-25T12:39:43.313Z,96548.00
2023-01-25T12:45:27.863Z,96540.00
2023-01-25T12:51:01.206Z,96541.00
2023-01-25T12:56:49.158Z,96525.00
2023-01-25T13:02:55.105Z,96528.00
2023-01-25T13:09:04.160Z,96520.00
2023-01-25T13:14:40.303Z,96510.00
2023-01-25T13:20:39.230Z,96508.00
2023-01-25T13:26:24.072Z,96508.00
2023-01-25T13:31:57.201Z,96509.00
2023-01-25T13:37:34.108Z,96512.00
2023-01-25T13:43:23.618Z,96507.00
2023-01-25T13:49:07.684Z,96493.00
2023-01-25T13:54:44.490Z,96479.00
2023-01-25T14:00:25.840Z,96500.00
2023-01-25T14:05:59.065Z,96477.00
2023-01-25T14:11:32.036Z,96488.00
2023-01-25T14:17:16.969Z,96474.00
2023-01-25T14:22:51.932Z,96472.00
2023-01-25T14:28:27.046Z,96474.00
2023-01-25T14:33:59.401Z,96458.00
2023-01-25T14:39:30.119Z,96459.00
2023-01-25T14:45:01.274Z,96445.00
2023-01-25T14:50:41.832Z,96450.00
2023-01-25T14:56:26.677Z,96455.00
2023-01-25T15:02:21.554Z,96447.00
2023-01-25T15:08:08.661Z,96446.00
2023-01-25T15:13:36.657Z,96453.00
2023-01-25T15:19:07.278Z,96435.00
2023-01-25T15:24:37.978Z,96424.00
2023-01-25T15:30:15.557Z,96429.00
2023-01-25T15:35:47.531Z,96421.00
2023-01-25T15:41:20.849Z,96420.00
2023-01-25T15:46:51.723Z,96408.00
2023-01-25T15:52:26.205Z,96395.00
2023-01-25T15:57:56.185Z,96399.00
2023-01-25T16:03:41.678Z,96404.00
2023-01-25T16:09:31.060Z,96396.00
2023-01-25T16:15:09.858Z,96395.00
2023-01-25T16:20:37.962Z,96393.00
2023-01-25T16:26:37.667Z,96387.00
2023-01-25T16:32:37.443Z,96381.00
2023-01-25T16:38:25.507Z,96382.00
2023-01-25T16:43:56.863Z,96374.00
2023-01-25T16:49:27.341Z,96370.00
2023-01-25T16:54:55.299Z,96364.00
2023-01-25T17:00:24.714Z,96364.00
2023-01-25T17:05:56.307Z,96344.00
2023-01-25T17:11:50.543Z,96343.00
2023-01-25T17:17:34.095Z,96330.00
2023-01-25T17:23:03.169Z,96328.00
2023-01-25T17:28:32.919Z,96321.00
2023-01-25T17:34:08.950Z,96321.00
2023-01-25T17:39:39.985Z,96321.00
2023-01-25T17:45:08.838Z,96311.00
2023-01-25T17:50:38.993Z,96308.00
2023-01-25T17:56:11.499Z,96303.00
2023-01-25T18:01:43.023Z,96301.00
2023-01-25T18:07:10.997Z,96297.00
2023-01-25T18:12:39.117Z,96290.00
2023-01-25T18:18:08.403Z,96282.00
2023-01-25T18:23:38.244Z,96281.00
2023-01-25T18:29:09.542Z,96261.00
2023-01-25T18:34:37.591Z,96260.00
2023-01-25T18:40:07.647Z,96263.00
2023-01-25T18:45:36.634Z,96257.00
2023-01-25T18:51:15.555Z,96262.00
2023-01-25T18:56:47.894Z,96248.00
2023-01-25T19:02:17.284Z,96241.00
2023-01-25T19:07:45.529Z,96223.00
2023-01-25T19:13:22.536Z,96222.00
2023-01-25T19:18:53.996Z,96212.00
2023-01-25T19:24:22.361Z,96206.00
2023-01-25T19:29:51.676Z,96198.00
2023-01-25T19:35:29.570Z,96190.00
2023-01-25T19:41:10.605Z,96177.00
2023-01-25T19:46:38.796Z,96192.00
2023-01-25T19:52:06.759Z,96182.00
2023-01-25T19:57:34.743Z,96177.00
2023-01-25T20:03:15.623Z,96170.00
2023-01-25T20:08:47.294Z,96159.00
2023-01-25T20:14:15.903Z,96150.00
2023-01-25T20:19:44.412Z,96152.00
2023-01-25T20:25:13.744Z,96143.00
2023-01-25T20:30:44.546Z,96140.00
2023-01-25T20:36:13.754Z,96142.00
2023-01-25T20:41:45.134Z,96133.00
2023-01-25T20:47:13.708Z,96131.00
2023-01-25T20:52:44.106Z,96131.00
2023-01-25T20:58:15.076Z,96122.00
2023-01-25T21:03:47.894Z,96120.00
2023-01-25T21:09:18.051Z,96111.00
2023-01-25T21:14:51.733Z,96100.00
2023-01-25T21:20:21.203Z,96101.00
2023-01-25T21:25:49.215Z,96096.00
2023-01-25T21:31:21.094Z,96099.00
2023-01-25T21:36:49.024Z,96088.00
2023-01-25T21:42:20.023Z,96093.00
2023-01-25T21:47:47.992Z,96073.00
2023-01-25T21:53:15.993Z,96082.00
2023-01-25T21:58:44.126Z,96082.00
2023-01-25T22:04:16.131Z,96067.00
2023-01-25T22:09:52.777Z,96057.00
2023-01-25T22:15:20.716Z,96056.00
2023-01-25T22:20:48.760Z,96048.00
2023-01-25T22:26:21.423Z,96042.00
2023-01-25T22:31:49.635Z,96040.00
2023-01-25T22:37:17.538Z,96037.00
2023-01-25T22:42:45.544Z,96039.00
2023-01-25T22:48:13.585Z,96029.00
2023-01-25T22:53:42.275Z,96025.00
2023-01-25T22:59:14.931Z,96024.00
2023-01-25T23:04:42.927Z,96001.00
2023-01-25T23:10:11.625Z,96001.00
2023-01-25T23:15:43.757Z,95988.00
2023-01-25T23:21:11.811Z,95983.00
2023-01-25T23:26:40.985Z,95981.00
2023-01-25T23:32:09.152Z,95965.00
2023-01-25T23:37:37.085Z,95970.00
2023-01-25T23:43:04.962Z,95971.00
2023-01-25T23:48:33.261Z,95962.00
2023-01-25T23:54:02.264Z,95951.00
2023-01-25T23:59:30.044Z,95953.00
